createdAt,value
2023-04-29T00:06:25.540Z,2.03
2023-04-29T00:21:30.322Z,2.20
2023-04-29T00:36:34.710Z,1.90
2023-04-29T00:51:39.376Z,2.13
2023-04-29T01:06:58.220Z,1.90
2023-04-29T01:22:02.901Z,2.37
2023-04-29T01:37:15.600Z,2.57
2023-04-29T01:52:26.046Z,2.73
2023-04-29T02:07:34.551Z,2.13
2023-04-29T02:22:40.121Z,2.67
2023-04-29T02:37:44.925Z,2.97
2023-04-29T02:52:49.441Z,3.07
2023-04-29T03:07:54.835Z,2.57
2023-04-29T03:23:00.805Z,3.27
2023-04-29T03:38:05.497Z,2.87
2023-04-29T03:53:12.333Z,4.07
2023-04-29T04:08:17.137Z,3.13
2023-04-29T04:23:28.542Z,4.57
2023-04-29T04:38:33.139Z,4.23
2023-04-29T04:53:39.913Z,5.03
2023-04-29T05:08:55.711Z,5.20
2023-04-29T05:24:01.694Z,5.93
2023-04-29T05:39:06.307Z,6.77
2023-04-29T05:54:10.819Z,7.40
2023-04-29T06:09:26.318Z,9.20
2023-04-29T06:24:32.110Z,9.80
2023-04-29T06:39:36.827Z,13.27
2023-04-29T06:54:55.254Z,15.17
2023-04-29T07:09:59.665Z,17.07
2023-04-29T07:25:04.551Z,18.83
2023-04-29T07:40:10.181Z,19.40
2023-04-29T07:55:15.685Z,21.00
2023-04-29T08:10:22.390Z,20.77
2023-04-29T08:25:29.135Z,23.53
2023-04-29T08:40:35.710Z,24.13
2023-04-29T08:55:43.453Z,26.77
2023-04-29T09:10:48.655Z,29.60
2023-04-29T09:25:58.559Z,27.33
2023-04-29T09:41:12.051Z,28.67
2023-04-29T09:56:16.476Z,31.50
2023-04-29T10:11:21.667Z,31.80
2023-04-29T10:26:28.524Z,27.97
2023-04-29T10:41:36.873Z,22.23
2023-04-29T10:56:43.535Z,22.80
2023-04-29T11:12:00.387Z,17.77
2023-04-29T11:27:05.859Z,21.40
2023-04-29T11:42:10.218Z,17.20
2023-04-29T11:57:14.984Z,18.23
2023-04-29T12:12:20.546Z,15.97
2023-04-29T12:27:26.578Z,13.03
2023-04-29T12:42:35.033Z,16.03
2023-04-29T12:57:39.628Z,17.10
2023-04-29T13:12:44.012Z,16.17
2023-04-29T13:27:48.664Z,14.00
2023-04-29T13:43:02.203Z,11.50
2023-04-29T13:58:37.826Z,11.83
2023-04-29T14:13:34.772Z,8.47
2023-04-29T14:28:39.116Z,7.10
2023-04-29T14:43:43.608Z,6.00
2023-04-29T14:58:48.016Z,5.03
2023-04-29T15:13:52.542Z,4.67
2023-04-29T15:28:57.013Z,3.67
2023-04-29T15:44:01.479Z,3.73
2023-04-29T15:59:06.456Z,5.13
2023-04-29T16:14:11.035Z,4.97
2023-04-29T16:29:15.437Z,6.83
2023-04-29T16:44:19.861Z,9.03
2023-04-29T16:59:24.474Z,6.37
2023-04-29T17:14:28.960Z,8.43
2023-04-29T17:29:33.395Z,8.40
2023-04-29T17:44:38.030Z,10.07
2023-04-29T17:59:42.652Z,9.03
2023-04-29T18:14:48.695Z,8.53
2023-04-29T18:29:53.257Z,8.33
2023-04-29T18:44:57.821Z,7.07
2023-04-29T19:00:03.625Z,7.97
2023-04-29T19:15:09.158Z,7.80
2023-04-29T19:30:14.154Z,8.53
2023-04-29T19:45:18.688Z,10.20
2023-04-29T20:00:23.389Z,12.57
2023-04-29T20:15:29.150Z,14.47
2023-04-29T20:30:34.017Z,15.10
2023-04-29T20:45:39.004Z,15.67
2023-04-29T21:00:43.465Z,14.70
2023-04-29T21:15:47.957Z,13.03
2023-04-29T21:30:52.423Z,11.80
2023-04-29T21:45:56.987Z,10.43
2023-04-29T22:01:03.492Z,11.93
2023-04-29T22:16:08.800Z,10.57
2023-04-29T22:31:13.346Z,11.37
2023-04-29T22:46:17.801Z,12.60
2023-04-29T23:01:22.418Z,13.67
2023-04-29T23:16:26.999Z,13.63
2023-04-29T23:31:31.504Z,15.83
2023-04-29T23:46:36.029Z,16.23
